sensor_id;sensor_type;location;lat;lon;timestamp;pressure;altitude;pressure_sealevel;temperature;humidity
63111;BME280;49201;53.426;10.300;2023-04-26T00:00:42;101521.81;;;4.24;100.00
63111;BME280;49201;53.426;10.300;2023-04-26T00:03:08;101514.31;;;4.26;100.00
63111;BME280;49201;53.426;10.300;2023-04-26T00:05:33;101511.50;;;4.36;100.00
63111;BME280;49201;53.426;10.300;2023-04-26T00:08:00;101515.72;;;4.35;100.00
63111;BME280;49201;53.426;10.300;2023-04-26T00:10:25;101515.84;;;4.38;100.00
63111;BME280;49201;53.426;10.300;2023-04-26T00:12:51;101514.19;;;4.39;100.00
63111;BME280;49201;53.426;10.300;2023-04-26T00:15:17;101515.78;;;4.37;100.00
63111;BME280;49201;53.426;10.300;2023-04-26T00:17:42;101516.56;;;4.36;100.00
63111;BME280;49201;53.426;10.300;2023-04-26T00:20:08;101510.47;;;4.32;100.00
63111;BME280;49201;53.426;10.300;2023-04-26T00:22:36;101515.72;;;4.35;100.00
63111;BME280;49201;53.426;10.300;2023-04-26T00:25:01;101524.16;;;4.36;100.00
63111;BME280;49201;53.426;10.300;2023-04-26T00:27:27;101519.97;;;4.36;100.00
63111;BME280;49201;53.426;10.300;2023-04-26T00:29:53;101529.09;;;4.33;100.00
63111;BME280;49201;53.426;10.300;2023-04-26T00:32:19;101534.16;;;4.33;100.00
63111;BME280;49201;53.426;10.300;2023-04-26T00:34:45;101531.53;;;4.31;100.00
63111;BME280;49201;53.426;10.300;2023-04-26T00:37:11;101539.13;;;4.31;100.00
63111;BME280;49201;53.426;10.300;2023-04-26T00:39:37;101527.25;;;4.30;100.00
63111;BME280;49201;53.426;10.300;2023-04-26T00:42:03;101531.44;;;4.30;100.00
63111;BME280;49201;53.426;10.300;2023-04-26T00:44:28;101531.03;;;4.22;100.00
63111;BME280;49201;53.426;10.300;2023-04-26T00:46:53;101526.47;;;4.17;100.00
63111;BME280;49201;53.426;10.300;2023-04-26T00:49:22;101529.09;;;4.18;100.00
63111;BME280;49201;53.426;10.300;2023-04-26T00:51:50;101536.88;;;4.21;100.00
63111;BME280;49201;53.426;10.300;2023-04-26T00:54:16;101544.03;;;4.28;100.00
63111;BME280;49201;53.426;10.300;2023-04-26T00:56:44;101544.38;;;4.34;100.00
63111;BME280;49201;53.426;10.300;2023-04-26T00:59:10;101546.75;;;4.31;100.00
63111;BME280;49201;53.426;10.300;2023-04-26T01:01:35;101546.97;;;4.36;100.00
63111;BME280;49201;53.426;10.300;2023-04-26T01:04:02;101546.03;;;4.34;100.00
63111;BME280;49201;53.426;10.300;2023-04-26T01:06:33;101545.94;;;4.32;100.00
63111;BME280;49201;53.426;10.300;2023-04-26T01:09:01;101542.56;;;4.32;100.00
63111;BME280;49201;53.426;10.300;2023-04-26T01:11:29;101545.00;;;4.30;100.00
63111;BME280;49201;53.426;10.300;2023-04-26T01:13:55;101542.38;;;4.29;100.00
63111;BME280;49201;53.426;10.300;2023-04-26T01:16:22;101545.53;;;4.25;100.00
63111;BME280;49201;53.426;10.300;2023-04-26T01:18:51;101547.97;;;4.23;100.00
63111;BME280;49201;53.426;10.300;2023-04-26T01:21:21;101548.25;;;4.13;100.00
63111;BME280;49201;53.426;10.300;2023-04-26T01:23:47;101540.03;;;4.03;100.00
63111;BME280;49201;53.426;10.300;2023-04-26T01:26:14;101549.13;;;3.99;100.00
63111;BME280;49201;53.426;10.300;2023-04-26T01:28:39;101543.88;;;3.96;100.00
63111;BME280;49201;53.426;10.300;2023-04-26T01:31:05;101552.97;;;3.93;100.00
63111;BME280;49201;53.426;10.300;2023-04-26T01:33:31;101553.78;;;3.92;100.00
63111;BME280;49201;53.426;10.300;2023-04-26T01:35:57;101547.56;;;3.87;100.00
63111;BME280;49201;53.426;10.300;2023-04-26T01:38:22;101554.38;;;3.88;100.00
63111;BME280;49201;53.426;10.300;2023-04-26T01:40:47;101549.13;;;3.85;100.00
63111;BME280;49201;53.426;10.300;2023-04-26T01:43:13;101553.25;;;3.83;100.00
63111;BME280;49201;53.426;10.300;2023-04-26T01:45:40;101554.88;;;3.82;100.00
63111;BME280;49201;53.426;10.300;2023-04-26T01:48:24;101553.16;;;3.81;100.00
63111;BME280;49201;53.426;10.300;2023-04-26T01:50:49;101560.06;;;3.84;100.00
63111;BME280;49201;53.426;10.300;2023-04-26T01:53:15;101556.66;;;3.83;100.00
63111;BME280;49201;53.426;10.300;2023-04-26T01:55:40;101554.78;;;3.81;100.00
63111;BME280;49201;53.426;10.300;2023-04-26T01:58:07;101552.03;;;3.76;100.00
63111;BME280;49201;53.426;10.300;2023-04-26T02:00:33;101554.56;;;3.76;100.00
63111;BME280;49201;53.426;10.300;2023-04-26T02:02:58;101554.38;;;3.73;100.00
63111;BME280;49201;53.426;10.300;2023-04-26T02:05:23;101554.47;;;3.75;100.00
63111;BME280;49201;53.426;10.300;2023-04-26T02:07:49;101557.09;;;3.76;100.00
63111;BME280;49201;53.426;10.300;2023-04-26T02:10:15;101554.75;;;3.79;100.00
63111;BME280;49201;53.426;10.300;2023-04-26T02:12:41;101552.13;;;3.78;100.00
63111;BME280;49201;53.426;10.300;2023-04-26T02:15:07;101560.50;;;3.77;100.00
63111;BME280;49201;53.426;10.300;2023-04-26T02:17:33;101565.38;;;3.74;100.00
63111;BME280;49201;53.426;10.300;2023-04-26T02:19:58;101563.63;;;3.73;100.00
63111;BME280;49201;53.426;10.300;2023-04-26T02:22:24;101551.84;;;3.73;100.00
63111;BME280;49201;53.426;10.300;2023-04-26T02:24:50;101559.53;;;3.75;100.00
63111;BME280;49201;53.426;10.300;2023-04-26T02:27:17;101556.91;;;3.73;100.00
63111;BME280;49201;53.426;10.300;2023-04-26T02:29:43;101552.44;;;3.69;100.00
63111;BME280;49201;53.426;10.300;2023-04-26T02:32:09;101555.59;;;3.65;100.00
63111;BME280;49201;53.426;10.300;2023-04-26T02:34:35;101557.44;;;3.68;100.00
63111;BME280;49201;53.426;10.300;2023-04-26T02:37:00;101569.56;;;3.73;100.00
63111;BME280;49201;53.426;10.300;2023-04-26T02:39:26;101557.97;;;3.77;100.00
63111;BME280;49201;53.426;10.300;2023-04-26T02:41:51;101561.53;;;3.80;100.00
63111;BME280;49201;53.426;10.300;2023-04-26T02:44:17;101560.16;;;3.85;100.00
63111;BME280;49201;53.426;10.300;2023-04-26T02:46:42;101569.66;;;3.89;100.00
63111;BME280;49201;53.426;10.300;2023-04-26T02:49:08;101575.97;;;3.96;100.00
63111;BME280;49201;53.426;10.300;2023-04-26T02:51:34;101584.94;;;4.05;100.00
63111;BME280;49201;53.426;10.300;2023-04-26T02:53:59;101584.94;;;4.05;100.00
63111;BME280;49201;53.426;10.300;2023-04-26T02:56:25;101587.56;;;4.07;100.00
63111;BME280;49201;53.426;10.300;2023-04-26T02:58:50;101576.13;;;3.99;100.00
63111;BME280;49201;53.426;10.300;2023-04-26T03:01:16;101578.03;;;4.03;100.00
63111;BME280;49201;53.426;10.300;2023-04-26T03:03:42;101581.78;;;4.09;100.00
63111;BME280;49201;53.426;10.300;2023-04-26T03:06:08;101573.94;;;4.05;100.00
63111;BME280;49201;53.426;10.300;2023-04-26T03:08:33;101555.78;;;3.97;100.00
63111;BME280;49201;53.426;10.300;2023-04-26T03:11:01;101553.88;;;3.93;100.00
63111;BME280;49201;53.426;10.300;2023-04-26T03:13:27;101554.91;;;3.97;100.00
63111;BME280;49201;53.426;10.300;2023-04-26T03:15:54;101560.16;;;4.00;100.00
63111;BME280;49201;53.426;10.300;2023-04-26T03:18:20;101566.69;;;3.96;100.00
63111;BME280;49201;53.426;10.300;2023-04-26T03:20:47;101562.31;;;3.94;100.00
63111;BME280;49201;53.426;10.300;2023-04-26T03:23:13;101562.88;;;3.88;100.00
63111;BME280;49201;53.426;10.300;2023-04-26T03:25:38;101566.69;;;3.82;100.00
63111;BME280;49201;53.426;10.300;2023-04-26T03:28:04;101567.13;;;3.75;100.00
63111;BME280;49201;53.426;10.300;2023-04-26T03:30:30;101561.97;;;3.73;100.00
63111;BME280;49201;53.426;10.300;2023-04-26T03:32:55;101563.44;;;3.70;100.00
63111;BME280;49201;53.426;10.300;2023-04-26T03:35:21;101571.84;;;3.69;100.00
63111;BME280;49201;53.426;10.300;2023-04-26T03:37:47;101572.88;;;3.72;100.00
63111;BME280;49201;53.426;10.300;2023-04-26T03:40:14;101573.69;;;3.71;100.00
63111;BME280;49201;53.426;10.300;2023-04-26T03:42:41;101570.44;;;3.74;100.00
63111;BME280;49201;53.426;10.300;2023-04-26T03:45:07;101566.97;;;3.72;100.00
63111;BME280;49201;53.426;10.300;2023-04-26T03:47:35;101563.19;;;3.65;100.00
63111;BME280;49201;53.426;10.300;2023-04-26T03:50:01;101563.09;;;3.64;100.00
63111;BME280;49201;53.426;10.300;2023-04-26T03:52:26;101557.84;;;3.61;100.00
63111;BME280;49201;53.426;10.300;2023-04-26T03:54:52;101556.81;;;3.57;100.00
63111;BME280;49201;53.426;10.300;2023-04-26T03:57:17;101554.19;;;3.56;100.00
63111;BME280;49201;53.426;10.300;2023-04-26T03:59:43;101556.53;;;3.53;100.00
63111;BME280;49201;53.426;10.300;2023-04-26T04:02:08;101567.53;;;3.53;100.00
63111;BME280;49201;53.426;10.300;2023-04-26T04:04:34;101565.91;;;3.54;100.00
63111;BME280;49201;53.426;10.300;2023-04-26T04:06:59;101576.00;;;3.54;100.00
63111;BME280;49201;53.426;10.300;2023-04-26T04:09:25;101569.81;;;3.49;100.00
63111;BME280;49201;53.426;10.300;2023-04-26T04:11:51;101571.34;;;3.47;100.00
63111;BME280;49201;53.426;10.300;2023-04-26T04:14:16;101575.81;;;3.51;100.00
63111;BME280;49201;53.426;10.300;2023-04-26T04:16:42;101576.06;;;3.55;100.00
63111;BME280;49201;53.426;10.300;2023-04-26T04:19:07;101570.94;;;3.54;100.00
63111;BME280;49201;53.426;10.300;2023-04-26T04:21:33;101580.19;;;3.53;100.00
63111;BME280;49201;53.426;10.300;2023-04-26T04:23:59;101573.38;;;3.52;100.00
63111;BME280;49201;53.426;10.300;2023-04-26T04:26:25;101577.47;;;3.50;100.00
63111;BME280;49201;53.426;10.300;2023-04-26T04:28:52;101580.97;;;3.52;100.00
63111;BME280;49201;53.426;10.300;2023-04-26T04:31:19;101581.94;;;3.54;100.00
63111;BME280;49201;53.426;10.300;2023-04-26T04:33:45;101591.09;;;3.52;100.00
63111;BME280;49201;53.426;10.300;2023-04-26T04:36:12;101590.13;;;3.50;100.00
63111;BME280;49201;53.426;10.300;2023-04-26T04:38:37;101591.59;;;3.47;100.00
63111;BME280;49201;53.426;10.300;2023-04-26T04:41:04;101593.34;;;3.48;100.00
63111;BME280;49201;53.426;10.300;2023-04-26T04:43:30;101585.06;;;3.50;100.00
63111;BME280;49201;53.426;10.300;2023-04-26T04:45:55;101592.75;;;3.52;100.00
63111;BME280;49201;53.426;10.300;2023-04-26T04:48:21;101591.09;;;3.67;100.00
63111;BME280;49201;53.426;10.300;2023-04-26T04:50:48;101589.56;;;3.69;100.00
63111;BME280;49201;53.426;10.300;2023-04-26T04:53:14;101593.63;;;3.67;100.00
63111;BME280;49201;53.426;10.300;2023-04-26T04:55:39;101595.03;;;3.62;100.00
63111;BME280;49201;53.426;10.300;2023-04-26T04:58:06;101607.88;;;3.65;100.00
63111;BME280;49201;53.426;10.300;2023-04-26T05:00:32;101605.59;;;3.69;100.00
63111;BME280;49201;53.426;10.300;2023-04-26T05:03:12;101606.09;;;3.77;100.00
63111;BME280;49201;53.426;10.300;2023-04-26T05:05:38;101604.09;;;3.86;100.00
63111;BME280;49201;53.426;10.300;2023-04-26T05:08:03;101605.97;;;3.90;100.00
63111;BME280;49201;53.426;10.300;2023-04-26T05:10:32;101615.16;;;3.88;100.00
63111;BME280;49201;53.426;10.300;2023-04-26T05:12:58;101605.81;;;3.87;100.00
63111;BME280;49201;53.426;10.300;2023-04-26T05:15:23;101608.78;;;3.94;100.00
63111;BME280;49201;53.426;10.300;2023-04-26T05:17:49;101608.88;;;4.10;100.00
63111;BME280;49201;53.426;10.300;2023-04-26T05:20:19;101602.78;;;4.21;100.00
63111;BME280;49201;53.426;10.300;2023-04-26T05:22:45;101602.81;;;4.37;100.00
63111;BME280;49201;53.426;10.300;2023-04-26T05:25:11;101608.59;;;4.49;100.00
63111;BME280;49201;53.426;10.300;2023-04-26T05:27:38;101610.81;;;4.43;100.00
63111;BME280;49201;53.426;10.300;2023-04-26T05:30:33;101603.84;;;4.55;100.00
63111;BME280;49201;53.426;10.300;2023-04-26T05:33:21;101611.75;;;4.45;100.00
63111;BME280;49201;53.426;10.300;2023-04-26T05:36:07;101609.63;;;4.38;100.00
63111;BME280;49201;53.426;10.300;2023-04-26T05:38:34;101616.31;;;4.36;100.00
63111;BME280;49201;53.426;10.300;2023-04-26T05:41:00;101615.69;;;4.40;100.00
63111;BME280;49201;53.426;10.300;2023-04-26T05:43:26;101620.56;;;4.37;100.00
63111;BME280;49201;53.426;10.300;2023-04-26T05:45:53;101617.09;;;4.35;100.00
63111;BME280;49201;53.426;10.300;2023-04-26T05:48:22;101621.88;;;4.45;100.00
63111;BME280;49201;53.426;10.300;2023-04-26T05:50:49;101614.38;;;4.32;100.00
63111;BME280;49201;53.426;10.300;2023-04-26T05:53:16;101627.56;;;4.41;100.00
63111;BME280;49201;53.426;10.300;2023-04-26T05:55:43;101624.41;;;4.45;100.00
63111;BME280;49201;53.426;10.300;2023-04-26T05:58:09;101627.38;;;4.53;100.00
63111;BME280;49201;53.426;10.300;2023-04-26T06:00:35;101633.69;;;4.45;100.00
63111;BME280;49201;53.426;10.300;2023-04-26T06:03:01;101628.84;;;4.64;100.00
63111;BME280;49201;53.426;10.300;2023-04-26T06:05:27;101629.03;;;4.97;100.00
63111;BME280;49201;53.426;10.300;2023-04-26T06:07:53;101620.66;;;5.14;100.00
63111;BME280;49201;53.426;10.300;2023-04-26T06:10:18;101619.41;;;5.38;100.00
63111;BME280;49201;53.426;10.300;2023-04-26T06:12:45;101626.38;;;5.26;100.00
63111;BME280;49201;53.426;10.300;2023-04-26T06:15:11;101620.91;;;5.67;100.00
63111;BME280;49201;53.426;10.300;2023-04-26T06:17:37;101623.28;;;5.80;100.00
63111;BME280;49201;53.426;10.300;2023-04-26T06:20:03;101621.84;;;6.01;100.00
63111;BME280;49201;53.426;10.300;2023-04-26T06:22:33;101616.09;;;6.21;100.00
63111;BME280;49201;53.426;10.300;2023-04-26T06:24:59;101617.75;;;6.38;100.00
63111;BME280;49201;53.426;10.300;2023-04-26T06:27:25;101615.03;;;6.17;100.00
63111;BME280;49201;53.426;10.300;2023-04-26T06:29:52;101618.09;;;6.28;100.00
63111;BME280;49201;53.426;10.300;2023-04-26T06:32:18;101614.84;;;6.30;100.00
63111;BME280;49201;53.426;10.300;2023-04-26T06:34:43;101618.13;;;6.63;100.00
63111;BME280;49201;53.426;10.300;2023-04-26T06:37:10;101618.28;;;6.83;100.00
63111;BME280;49201;53.426;10.300;2023-04-26T06:39:39;101618.00;;;6.96;100.00
63111;BME280;49201;53.426;10.300;2023-04-26T06:42:04;101615.63;;;6.64;100.00
63111;BME280;49201;53.426;10.300;2023-04-26T06:44:47;101623.81;;;6.57;100.00
63111;BME280;49201;53.426;10.300;2023-04-26T06:47:15;101625.63;;;6.60;100.00
63111;BME280;49201;53.426;10.300;2023-04-26T06:49:40;101620.59;;;6.61;100.00
63111;BME280;49201;53.426;10.300;2023-04-26T06:52:06;101616.97;;;7.10;100.00
63111;BME280;49201;53.426;10.300;2023-04-26T06:54:32;101606.69;;;7.64;100.00
63111;BME280;49201;53.426;10.300;2023-04-26T06:56:58;101610.84;;;7.43;100.00
63111;BME280;49201;53.426;10.300;2023-04-26T06:59:23;101604.63;;;7.56;100.00
63111;BME280;49201;53.426;10.300;2023-04-26T07:01:49;101621.00;;;7.24;100.00
63111;BME280;49201;53.426;10.300;2023-04-26T07:04:14;101612.13;;;7.53;100.00
63111;BME280;49201;53.426;10.300;2023-04-26T07:06:42;101609.81;;;7.59;100.00
63111;BME280;49201;53.426;10.300;2023-04-26T07:09:08;101616.59;;;7.20;100.00
63111;BME280;49201;53.426;10.300;2023-04-26T07:11:33;101619.84;;;7.35;100.00
63111;BME280;49201;53.426;10.300;2023-04-26T07:13:58;101622.16;;;7.50;100.00
63111;BME280;49201;53.426;10.300;2023-04-26T07:16:25;101621.91;;;7.44;100.00
63111;BME280;49201;53.426;10.300;2023-04-26T07:18:51;101593.44;;;7.73;100.00
63111;BME280;49201;53.426;10.300;2023-04-26T07:21:17;101578.88;;;8.10;100.00
63111;BME280;49201;53.426;10.300;2023-04-26T07:23:43;101567.25;;;8.16;100.00
63111;BME280;49201;53.426;10.300;2023-04-26T07:26:12;101529.63;;;8.53;100.00
63111;BME280;49201;53.426;10.300;2023-04-26T07:28:37;101575.06;;;8.40;100.00
63111;BME280;49201;53.426;10.300;2023-04-26T07:31:03;101556.56;;;8.67;100.00
63111;BME280;49201;53.426;10.300;2023-04-26T07:33:29;101481.81;;;9.17;100.00
63111;BME280;49201;53.426;10.300;2023-04-26T07:35:56;101453.06;;;8.99;100.00
63111;BME280;49201;53.426;10.300;2023-04-26T07:38:22;101454.41;;;8.89;100.00
63111;BME280;49201;53.426;10.300;2023-04-26T07:40:48;101467.84;;;8.84;100.00
63111;BME280;49201;53.426;10.300;2023-04-26T07:43:15;101443.22;;;8.86;100.00
63111;BME280;49201;53.426;10.300;2023-04-26T07:45:41;101457.66;;;8.85;100.00
63111;BME280;49201;53.426;10.300;2023-04-26T07:48:06;101425.66;;;8.71;100.00
63111;BME280;49201;53.426;10.300;2023-04-26T07:50:32;101372.22;;;9.51;100.00
63111;BME280;49201;53.426;10.300;2023-04-26T07:52:58;101347.84;;;9.88;100.00
63111;BME280;49201;53.426;10.300;2023-04-26T07:55:23;101369.72;;;9.27;100.00
63111;BME280;49201;53.426;10.300;2023-04-26T07:57:49;101395.78;;;8.92;100.00
63111;BME280;49201;53.426;10.300;2023-04-26T08:00:14;101388.75;;;9.35;100.00
63111;BME280;49201;53.426;10.300;2023-04-26T08:02:41;101352.00;;;9.58;100.00
63111;BME280;49201;53.426;10.300;2023-04-26T08:05:07;101284.44;;;10.05;100.00
63111;BME280;49201;53.426;10.300;2023-04-26T08:07:33;101221.34;;;10.38;100.00
63111;BME280;49201;53.426;10.300;2023-04-26T08:09:58;101198.50;;;10.45;100.00
63111;BME280;49201;53.426;10.300;2023-04-26T08:12:24;101195.81;;;10.73;100.00
63111;BME280;49201;53.426;10.300;2023-04-26T08:14:49;101146.09;;;10.31;100.00
63111;BME280;49201;53.426;10.300;2023-04-26T08:17:15;101110.72;;;9.84;100.00
63111;BME280;49201;53.426;10.300;2023-04-26T08:19:40;101113.81;;;10.36;100.00
63111;BME280;49201;53.426;10.300;2023-04-26T08:22:06;101141.50;;;10.18;100.00
63111;BME280;49201;53.426;10.300;2023-04-26T08:24:32;101128.19;;;10.00;100.00
63111;BME280;49201;53.426;10.300;2023-04-26T08:26:57;101149.44;;;9.98;100.00
63111;BME280;49201;53.426;10.300;2023-04-26T08:29:25;101184.38;;;10.27;100.00
63111;BME280;49201;53.426;10.300;2023-04-26T08:31:51;101225.72;;;10.42;100.00
63111;BME280;49201;53.426;10.300;2023-04-26T08:34:17;101231.59;;;10.07;100.00
63111;BME280;49201;53.426;10.300;2023-04-26T08:36:42;101256.03;;;9.97;100.00
63111;BME280;49201;53.426;10.300;2023-04-26T08:39:08;101409.16;;;8.85;100.00
63111;BME280;49201;53.426;10.300;2023-04-26T08:41:44;101656.38;;;7.93;100.00
63111;BME280;49201;53.426;10.300;2023-04-26T08:44:12;101755.03;;;7.57;100.00
63111;BME280;49201;53.426;10.300;2023-04-26T08:46:48;101782.75;;;7.51;100.00
63111;BME280;49201;53.426;10.300;2023-04-26T08:49:30;101705.25;;;7.65;100.00
63111;BME280;49201;53.426;10.300;2023-04-26T08:51:58;101719.88;;;7.69;100.00
63111;BME280;49201;53.426;10.300;2023-04-26T08:54:24;101750.34;;;7.66;100.00
63111;BME280;49201;53.426;10.300;2023-04-26T08:56:50;101815.44;;;7.42;100.00
63111;BME280;49201;53.426;10.300;2023-04-26T08:59:18;101797.03;;;7.48;100.00
63111;BME280;49201;53.426;10.300;2023-04-26T09:01:43;101751.53;;;7.55;100.00
63111;BME280;49201;53.426;10.300;2023-04-26T09:04:10;101702.03;;;7.50;100.00
63111;BME280;49201;53.426;10.300;2023-04-26T09:06:36;101680.66;;;7.47;100.00
63111;BME280;49201;53.426;10.300;2023-04-26T09:09:03;101669.91;;;7.54;100.00
63111;BME280;49201;53.426;10.300;2023-04-26T09:11:51;101675.63;;;7.67;100.00
63111;BME280;49201;53.426;10.300;2023-04-26T09:14:17;101679.78;;;7.84;100.00
63111;BME280;49201;53.426;10.300;2023-04-26T09:16:42;101666.91;;;8.00;100.00
63111;BME280;49201;53.426;10.300;2023-04-26T09:19:08;101670.75;;;8.51;100.00
63111;BME280;49201;53.426;10.300;2023-04-26T09:21:41;101669.59;;;8.63;100.00
63111;BME280;49201;53.426;10.300;2023-04-26T09:24:07;101645.72;;;8.83;100.00
63111;BME280;49201;53.426;10.300;2023-04-26T09:26:33;101612.00;;;9.14;100.00
63111;BME280;49201;53.426;10.300;2023-04-26T09:29:11;101601.41;;;9.74;100.00
63111;BME280;49201;53.426;10.300;2023-04-26T09:31:39;101536.63;;;10.50;100.00
63111;BME280;49201;53.426;10.300;2023-04-26T09:34:05;101487.94;;;9.97;100.00
63111;BME280;49201;53.426;10.300;2023-04-26T09:36:31;101522.41;;;10.06;100.00
63111;BME280;49201;53.426;10.300;2023-04-26T09:38:57;101513.78;;;10.29;100.00
63111;BME280;49201;53.426;10.300;2023-04-26T09:41:22;101518.66;;;11.07;100.00
63111;BME280;49201;53.426;10.300;2023-04-26T09:43:51;101407.13;;;10.89;100.00
63111;BME280;49201;53.426;10.300;2023-04-26T09:46:21;101348.78;;;11.11;100.00
63111;BME280;49201;53.426;10.300;2023-04-26T09:49:00;101326.69;;;11.50;100.00
63111;BME280;49201;53.426;10.300;2023-04-26T09:51:26;101223.88;;;11.78;100.00
63111;BME280;49201;53.426;10.300;2023-04-26T09:53:52;101212.91;;;12.30;100.00
63111;BME280;49201;53.426;10.300;2023-04-26T09:56:19;101157.84;;;12.65;100.00
63111;BME280;49201;53.426;10.300;2023-04-26T09:58:58;101165.94;;;12.37;100.00
63111;BME280;49201;53.426;10.300;2023-04-26T10:01:26;101058.88;;;12.89;98.29
63111;BME280;49201;53.426;10.300;2023-04-26T10:04:00;101010.19;;;12.99;93.39
63111;BME280;49201;53.426;10.300;2023-04-26T10:06:26;101052.47;;;12.60;97.26
63111;BME280;49201;53.426;10.300;2023-04-26T10:08:53;101038.19;;;11.73;94.95
63111;BME280;49201;53.426;10.300;2023-04-26T10:11:19;101015.19;;;11.78;90.38
63111;BME280;49201;53.426;10.300;2023-04-26T10:13:49;101090.94;;;11.59;100.00
63111;BME280;49201;53.426;10.300;2023-04-26T10:16:15;101163.31;;;11.46;100.00
63111;BME280;49201;53.426;10.300;2023-04-26T10:18:41;101095.81;;;11.06;97.94
63111;BME280;49201;53.426;10.300;2023-04-26T10:21:10;101122.09;;;10.99;100.00
63111;BME280;49201;53.426;10.300;2023-04-26T10:23:37;101102.78;;;11.13;99.25
63111;BME280;49201;53.426;10.300;2023-04-26T10:26:03;101088.69;;;12.23;95.56
63111;BME280;49201;53.426;10.300;2023-04-26T10:31:10;100934.44;;;13.50;78.18
63111;BME280;49201;53.426;10.300;2023-04-26T10:33:36;100948.28;;;13.66;80.25
63111;BME280;49201;53.426;10.300;2023-04-26T10:38:33;100917.94;;;13.26;74.75
63111;BME280;49201;53.426;10.300;2023-04-26T10:41:28;100999.56;;;12.74;85.58
63111;BME280;49201;53.426;10.300;2023-04-26T10:43:55;101095.25;;;12.06;94.77
63111;BME280;49201;53.426;10.300;2023-04-26T10:46:39;101231.19;;;10.88;100.00
63111;BME280;49201;53.426;10.300;2023-04-26T10:49:18;101381.38;;;9.97;100.00
63111;BME280;49201;53.426;10.300;2023-04-26T10:54:44;101714.66;;;8.83;100.00
63111;BME280;49201;53.426;10.300;2023-04-26T10:57:10;101776.75;;;8.62;100.00
63111;BME280;49201;53.426;10.300;2023-04-26T10:59:36;101844.59;;;8.57;100.00
63111;BME280;49201;53.426;10.300;2023-04-26T11:02:01;101848.75;;;8.55;100.00
63111;BME280;49201;53.426;10.300;2023-04-26T11:04:53;101857.63;;;8.63;100.00
63111;BME280;49201;53.426;10.300;2023-04-26T11:07:37;101828.53;;;8.59;100.00
63111;BME280;49201;53.426;10.300;2023-04-26T11:10:07;101787.19;;;8.68;100.00
63111;BME280;49201;53.426;10.300;2023-04-26T11:12:34;101699.03;;;8.76;100.00
63111;BME280;49201;53.426;10.300;2023-04-26T11:15:00;101687.53;;;9.07;100.00
63111;BME280;49201;53.426;10.300;2023-04-26T11:17:26;101691.88;;;9.10;100.00
63111;BME280;49201;53.426;10.300;2023-04-26T11:19:51;101670.94;;;8.35;100.00
63111;BME280;49201;53.426;10.300;2023-04-26T11:22:21;101722.72;;;8.32;100.00
63111;BME280;49201;53.426;10.300;2023-04-26T11:24:47;101703.81;;;8.08;100.00
63111;BME280;49201;53.426;10.300;2023-04-26T11:27:12;101716.03;;;8.75;100.00
63111;BME280;49201;53.426;10.300;2023-04-26T11:29:38;101677.81;;;8.56;100.00
63111;BME280;49201;53.426;10.300;2023-04-26T11:32:04;101692.03;;;8.92;100.00
63111;BME280;49201;53.426;10.300;2023-04-26T11:34:36;101675.53;;;8.84;100.00
63111;BME280;49201;53.426;10.300;2023-04-26T11:37:06;101634.91;;;8.90;100.00
63111;BME280;49201;53.426;10.300;2023-04-26T11:39:32;101628.50;;;9.22;100.00
63111;BME280;49201;53.426;10.300;2023-04-26T11:42:08;101594.78;;;9.32;100.00
63111;BME280;49201;53.426;10.300;2023-04-26T11:44:35;101665.72;;;9.15;100.00
63111;BME280;49201;53.426;10.300;2023-04-26T11:47:01;101708.03;;;9.09;100.00
63111;BME280;49201;53.426;10.300;2023-04-26T11:49:31;101674.56;;;8.81;100.00
63111;BME280;49201;53.426;10.300;2023-04-26T11:51:58;101669.78;;;8.68;100.00
63111;BME280;49201;53.426;10.300;2023-04-26T11:54:34;101696.25;;;8.70;100.00
63111;BME280;49201;53.426;10.300;2023-04-26T11:57:00;101671.25;;;8.83;100.00
63111;BME280;49201;53.426;10.300;2023-04-26T11:59:37;101612.25;;;8.98;100.00
63111;BME280;49201;53.426;10.300;2023-04-26T12:02:05;101632.31;;;9.11;100.00
63111;BME280;49201;53.426;10.300;2023-04-26T12:04:34;101583.47;;;9.25;100.00
63111;BME280;49201;53.426;10.300;2023-04-26T12:07:02;101578.69;;;9.34;100.00
63111;BME280;49201;53.426;10.300;2023-04-26T12:09:29;101518.69;;;9.73;100.00
63111;BME280;49201;53.426;10.300;2023-04-26T12:11:56;101436.09;;;10.29;100.00
63111;BME280;49201;53.426;10.300;2023-04-26T12:14:32;101348.09;;;11.18;100.00
63111;BME280;49201;53.426;10.300;2023-04-26T12:17:01;101302.53;;;11.78;100.00
63111;BME280;49201;53.426;10.300;2023-04-26T12:19:33;101262.16;;;12.09;100.00
63111;BME280;49201;53.426;10.300;2023-04-26T12:22:01;101213.34;;;12.54;100.00
63111;BME280;49201;53.426;10.300;2023-04-26T12:24:28;101176.06;;;12.77;100.00
63111;BME280;49201;53.426;10.300;2023-04-26T12:26:59;101166.06;;;12.44;100.00
63111;BME280;49201;53.426;10.300;2023-04-26T12:29:25;101167.41;;;12.73;100.00
63111;BME280;49201;53.426;10.300;2023-04-26T12:31:52;101186.34;;;12.77;100.00
63111;BME280;49201;53.426;10.300;2023-04-26T12:34:17;101121.63;;;13.04;96.70
63111;BME280;49201;53.426;10.300;2023-04-26T12:36:43;101159.53;;;13.17;100.00
63111;BME280;49201;53.426;10.300;2023-04-26T12:39:12;101204.38;;;13.37;100.00
63111;BME280;49201;53.426;10.300;2023-04-26T12:41:40;101131.72;;;12.38;97.19
63111;BME280;49201;53.426;10.300;2023-04-26T12:44:07;101196.41;;;12.17;100.00
63111;BME280;49201;53.426;10.300;2023-04-26T12:46:33;101134.97;;;12.78;97.31